Huvudsida
METAR-TAF:

METAR-TAF

Flygplatser :

Győr-Pér internationella flygplats

Győr, Ungern

latitud: 47-37-28N, longitud: 017-48-49E, höjd: 129 m

Aktuellt väderrapport

Denna rapport gjordes för 30 minuter sedan, klockan 21:45 UTC
Vind 6 kt från syd, varierande mellan sydost och syd/sydväst
Temperatur 0°C
Fuktighet 86%
Tryck 1027 hPa
Sikt: 9000 m
Mulet på en höjd av 1100 ft

METAR: LHPR 052145Z AUTO 17006KT 140V200 9000 OVC011 M00/M02 Q1027

Tid: 23:15 (22:15 UTC)

Väderprognos

Denna rapport gjordes för 3 timmar och 2 minuter sedan, klockan 19:13 UTC
Prognos gäller från 05 kl. 19 UTC till 06 kl. 03 UTC
Vind 9 kt från ost/sydost
Sikt: 6000 m
Brutna moln på en höjd av 1500 ft
Temporärt
från 05 kl. 19 UTC till 06 kl. 03 UTC
Sikt: 1500 m
Mulet på en höjd av 1000 ft
fuktdis

TAF: LHPR 051913Z 0519/0603 12009KT 6000 BKN015 TEMPO 0519/0603 1500 FZBCFG BR OVC010

Aktuella väderrapporter och prognoser från 4000 flygplatser (METAR- och TAF-rapporter).

De tillgängliga stationerna syns som gula och röda prickar på kartan.

För musen över prickarna för att se namnen på stationerna.

Klicka sedan för att få väderrapporter och prognoser.

För att ändra kartan: Klicka på de gröna knapparna med ett svart kors på för att zooma in; den gröna knappen med ett streck på för att zooma ut; eller på de gröna pilarna för angränsande kartor.


METAR-TAF: